createdAt,value
2019-05-25T00:01:37.502Z,4.53
2019-05-25T00:04:06.106Z,4.50
2019-05-25T00:06:34.866Z,4.35
2019-05-25T00:09:05.010Z,4.42
2019-05-25T00:11:33.732Z,4.45
2019-05-25T00:14:02.463Z,4.40
2019-05-25T00:16:31.182Z,4.80
2019-05-25T00:18:59.760Z,4.33
2019-05-25T00:21:28.478Z,4.12
2019-05-25T00:24:11.136Z,4.00
2019-05-25T00:26:27.503Z,4.05
2019-05-25T00:28:56.035Z,4.47
2019-05-25T00:31:24.763Z,4.20
2019-05-25T00:33:53.401Z,4.17
2019-05-25T00:36:22.147Z,4.10
2019-05-25T00:38:50.774Z,3.90
2019-05-25T00:41:19.212Z,4.78
2019-05-25T00:43:47.906Z,4.50
2019-05-25T00:46:16.345Z,3.90
2019-05-25T00:48:45.047Z,4.30
2019-05-25T00:51:13.589Z,3.98
2019-05-25T00:53:42.157Z,4.55
2019-05-25T00:56:10.649Z,4.35
2019-05-25T00:58:39.139Z,4.45
2019-05-25T01:01:07.729Z,4.55
2019-05-25T01:03:36.442Z,4.15
2019-05-25T01:06:05.185Z,4.47
2019-05-25T01:08:33.839Z,4.47
2019-05-25T01:11:02.455Z,4.87
2019-05-25T01:13:31.182Z,4.78
2019-05-25T01:16:00.338Z,4.15
2019-05-25T01:18:28.827Z,4.95
2019-05-25T01:20:57.783Z,4.53
2019-05-25T01:23:26.227Z,4.80
2019-05-25T01:25:54.926Z,4.60
2019-05-25T01:28:23.639Z,4.67
2019-05-25T01:30:52.874Z,4.67
2019-05-25T01:33:21.572Z,4.78
2019-05-25T01:35:50.322Z,4.65
2019-05-25T01:38:18.932Z,4.50
2019-05-25T01:40:47.628Z,4.55
2019-05-25T01:43:16.354Z,4.75
2019-05-25T01:45:44.796Z,4.83
2019-05-25T01:48:13.478Z,4.90
2019-05-25T01:50:42.721Z,5.00
2019-05-25T01:53:11.689Z,4.95
2019-05-25T01:55:40.702Z,4.72
2019-05-25T01:58:09.372Z,4.58
2019-05-25T02:00:38.164Z,5.00
2019-05-25T02:03:06.745Z,4.87
2019-05-25T02:05:35.434Z,4.80
2019-05-25T02:08:04.520Z,4.50
2019-05-25T02:10:33.208Z,4.72
2019-05-25T02:13:01.660Z,4.78
2019-05-25T02:15:30.175Z,5.00
2019-05-25T02:17:58.818Z,4.85
2019-05-25T02:20:27.321Z,5.10
2019-05-25T02:22:56.020Z,5.58
2019-05-25T02:25:24.629Z,5.45
2019-05-25T02:27:53.262Z,4.90
2019-05-25T02:30:24.810Z,5.15
2019-05-25T02:32:53.407Z,4.90
2019-05-25T02:35:25.395Z,5.42
2019-05-25T02:37:53.921Z,4.90
2019-05-25T02:40:22.721Z,5.50
2019-05-25T02:42:51.216Z,5.33
2019-05-25T02:45:19.858Z,5.35
2019-05-25T02:47:48.457Z,5.20
2019-05-25T02:50:17.104Z,4.90
2019-05-25T02:52:45.696Z,5.15
2019-05-25T02:55:14.700Z,5.10
2019-05-25T02:57:43.380Z,4.60
2019-05-25T03:00:12.954Z,4.67
2019-05-25T03:02:41.641Z,4.85
2019-05-25T03:05:12.589Z,5.25
2019-05-25T03:07:43.496Z,5.20
2019-05-25T03:10:13.210Z,4.90
2019-05-25T03:12:41.703Z,5.00
2019-05-25T03:15:10.406Z,5.00
2019-05-25T03:17:39.013Z,4.75
2019-05-25T03:20:07.986Z,5.10
2019-05-25T03:22:36.695Z,4.33
2019-05-25T03:25:08.628Z,4.00
2019-05-25T03:27:37.161Z,4.40
2019-05-25T03:30:07.783Z,4.70
2019-05-25T03:32:36.296Z,4.80
2019-05-25T03:35:07.216Z,4.65
2019-05-25T03:37:35.833Z,4.53
2019-05-25T03:40:07.643Z,4.33
2019-05-25T03:42:36.329Z,4.47
2019-05-25T03:45:07.242Z,4.92
2019-05-25T03:47:35.667Z,4.92
2019-05-25T03:50:05.177Z,4.80
2019-05-25T03:52:33.840Z,5.67
2019-05-25T03:55:02.499Z,6.22
2019-05-25T03:57:31.160Z,11.25
2019-05-25T03:59:59.871Z,10.50
2019-05-25T04:02:28.639Z,10.25
2019-05-25T04:04:57.243Z,10.32
2019-05-25T04:07:25.921Z,9.40
2019-05-25T04:09:54.631Z,8.63
2019-05-25T04:12:23.263Z,9.40
2019-05-25T04:14:51.706Z,9.10
2019-05-25T04:17:20.368Z,8.80
2019-05-25T04:19:49.018Z,10.58
2019-05-25T04:22:17.739Z,10.32
2019-05-25T04:24:46.390Z,10.65
2019-05-25T04:27:15.122Z,10.13
2019-05-25T04:29:43.747Z,10.08
2019-05-25T04:32:12.245Z,12.40
2019-05-25T04:34:40.819Z,12.60
2019-05-25T04:37:09.337Z,13.70
2019-05-25T04:39:37.896Z,15.03
2019-05-25T04:42:06.602Z,14.75
2019-05-25T04:44:35.261Z,14.58
2019-05-25T04:47:04.062Z,14.78
2019-05-25T04:49:32.511Z,14.55
2019-05-25T04:52:01.146Z,15.70
2019-05-25T04:54:29.705Z,15.45
2019-05-25T04:56:58.384Z,14.83
2019-05-25T04:59:26.879Z,14.58
2019-05-25T05:01:55.329Z,14.83
2019-05-25T05:04:23.852Z,15.60
2019-05-25T05:06:52.586Z,14.28
2019-05-25T05:09:21.222Z,14.55
2019-05-25T05:11:49.677Z,15.38
2019-05-25T05:14:18.311Z,15.03
2019-05-25T05:16:46.954Z,14.87
2019-05-25T05:19:15.685Z,13.62
2019-05-25T05:21:44.318Z,13.98
2019-05-25T05:24:13.279Z,13.85
2019-05-25T05:26:54.563Z,13.20
2019-05-25T05:29:12.033Z,13.38
2019-05-25T05:31:40.737Z,13.20
2019-05-25T05:34:09.413Z,12.63
2019-05-25T05:36:38.659Z,12.65
2019-05-25T05:39:09.100Z,12.73
2019-05-25T05:41:40.301Z,11.88
2019-05-25T05:44:09.005Z,11.17
2019-05-25T05:46:38.818Z,11.73
2019-05-25T05:49:10.274Z,11.20
2019-05-25T05:51:39.415Z,10.82
2019-05-25T05:54:08.049Z,12.07
2019-05-25T05:56:36.723Z,11.75
2019-05-25T05:59:05.366Z,12.07
2019-05-25T06:01:34.097Z,11.25
2019-05-25T06:04:02.784Z,10.95
2019-05-25T06:06:31.495Z,9.90
2019-05-25T06:09:00.165Z,10.63
2019-05-25T06:11:28.828Z,9.68
2019-05-25T06:13:57.506Z,8.73
2019-05-25T06:16:26.159Z,9.05
2019-05-25T06:18:54.696Z,8.20
2019-05-25T06:21:23.225Z,8.48
2019-05-25T06:23:51.720Z,7.90
2019-05-25T06:26:20.282Z,7.83
2019-05-25T06:28:48.788Z,8.08
2019-05-25T06:31:17.352Z,6.95
2019-05-25T06:33:46.084Z,7.12
2019-05-25T06:36:14.732Z,7.00
2019-05-25T06:38:43.218Z,6.65
2019-05-25T06:41:11.784Z,6.22
2019-05-25T06:43:40.286Z,6.42
2019-05-25T06:46:08.852Z,7.53
2019-05-25T06:48:37.364Z,7.47
2019-05-25T06:51:05.945Z,7.12
2019-05-25T06:53:34.594Z,7.33
2019-05-25T06:56:03.171Z,6.50
2019-05-25T06:58:31.671Z,7.78
2019-05-25T07:01:00.391Z,6.67
2019-05-25T07:03:28.861Z,7.30
2019-05-25T07:05:57.543Z,7.10
2019-05-25T07:08:26.135Z,6.78
2019-05-25T07:10:54.852Z,6.80
2019-05-25T07:13:23.480Z,7.20
2019-05-25T07:15:52.217Z,7.28
2019-05-25T07:18:20.836Z,7.10
2019-05-25T07:20:49.331Z,6.70
2019-05-25T07:23:17.916Z,6.70
2019-05-25T07:25:46.662Z,7.30
2019-05-25T07:28:15.389Z,6.00
2019-05-25T07:30:46.608Z,6.55
2019-05-25T07:33:14.305Z,6.58
2019-05-25T07:35:42.955Z,6.80
2019-05-25T07:38:11.621Z,7.47
2019-05-25T07:40:40.248Z,6.55
2019-05-25T07:43:08.966Z,7.50
2019-05-25T07:45:37.688Z,6.83
2019-05-25T07:48:06.330Z,6.20
2019-05-25T07:50:34.868Z,6.40
2019-05-25T07:53:03.421Z,6.37
2019-05-25T07:55:32.090Z,6.65
2019-05-25T07:58:15.908Z,6.37
2019-05-25T08:00:31.058Z,6.58
2019-05-25T08:02:59.656Z,6.70
2019-05-25T08:05:28.213Z,7.08
2019-05-25T08:07:56.742Z,7.00
2019-05-25T08:10:25.312Z,6.72
2019-05-25T08:12:53.785Z,6.05
2019-05-25T08:15:22.394Z,6.28
2019-05-25T08:17:52.380Z,7.37
2019-05-25T08:20:34.621Z,6.87
2019-05-25T08:22:58.669Z,7.00
2019-05-25T08:25:27.390Z,6.45
2019-05-25T08:27:56.037Z,6.00
2019-05-25T08:30:24.643Z,6.62
2019-05-25T08:32:53.136Z,5.80
2019-05-25T08:35:21.779Z,5.92
2019-05-25T08:37:50.259Z,5.78
2019-05-25T08:40:18.907Z,6.00
2019-05-25T08:42:47.567Z,5.53
2019-05-25T08:45:18.066Z,5.92
2019-05-25T08:47:46.534Z,5.87
2019-05-25T08:50:15.255Z,4.97
2019-05-25T08:52:43.852Z,5.65
2019-05-25T08:55:12.629Z,5.15
2019-05-25T08:57:41.069Z,6.62
2019-05-25T09:00:10.833Z,6.22
2019-05-25T09:02:39.542Z,6.30
2019-05-25T09:05:10.443Z,6.25
2019-05-25T09:07:39.889Z,6.62
2019-05-25T09:10:09.939Z,6.65
2019-05-25T09:12:38.525Z,7.10
2019-05-25T09:15:08.256Z,6.53
2019-05-25T09:17:36.880Z,6.28
2019-05-25T09:20:10.463Z,6.78
2019-05-25T09:22:39.094Z,6.40
2019-05-25T09:25:08.335Z,6.42
2019-05-25T09:27:36.918Z,6.30
2019-05-25T09:30:07.299Z,6.50
2019-05-25T09:32:35.851Z,6.72
2019-05-25T09:35:06.604Z,6.65
2019-05-25T09:37:35.483Z,6.15
2019-05-25T09:40:05.167Z,6.53
2019-05-25T09:42:33.866Z,6.12
2019-05-25T09:45:02.504Z,6.15
2019-05-25T09:47:31.214Z,7.58
2019-05-25T09:49:59.871Z,10.48
2019-05-25T09:52:28.371Z,6.50
2019-05-25T09:54:56.936Z,7.00
2019-05-25T09:57:25.657Z,6.60
2019-05-25T09:59:54.306Z,5.20
2019-05-25T10:02:23.099Z,5.12
2019-05-25T10:04:51.663Z,5.67
2019-05-25T10:07:20.178Z,4.67
2019-05-25T10:09:48.653Z,4.58
2019-05-25T10:12:17.127Z,4.90
2019-05-25T10:14:45.909Z,4.90
2019-05-25T10:17:14.502Z,4.80
2019-05-25T10:19:43.241Z,5.42
2019-05-25T10:22:11.871Z,5.17
2019-05-25T10:24:40.668Z,5.53
2019-05-25T10:27:09.239Z,5.08
2019-05-25T10:29:37.956Z,4.75
2019-05-25T10:32:06.678Z,4.87
2019-05-25T10:34:35.360Z,4.80
2019-05-25T10:37:04.044Z,4.60
2019-05-25T10:39:32.653Z,4.95
2019-05-25T10:42:01.146Z,4.55
2019-05-25T10:44:29.723Z,4.53
2019-05-25T10:46:58.204Z,4.40
2019-05-25T10:49:26.788Z,4.83
2019-05-25T10:51:55.347Z,4.17
2019-05-25T10:54:23.796Z,4.50
2019-05-25T10:56:52.408Z,4.83
2019-05-25T10:59:20.922Z,4.62
2019-05-25T11:01:49.442Z,4.50
2019-05-25T11:04:18.078Z,4.35
2019-05-25T11:06:46.710Z,4.75
2019-05-25T11:09:15.395Z,4.65
2019-05-25T11:11:44.060Z,4.72
2019-05-25T11:14:12.770Z,4.92
2019-05-25T11:16:41.429Z,4.45
2019-05-25T11:19:10.163Z,5.30
2019-05-25T11:21:38.779Z,4.87
2019-05-25T11:24:07.903Z,4.92
2019-05-25T11:26:37.184Z,4.75
2019-05-25T11:29:05.811Z,4.70
2019-05-25T11:31:34.859Z,4.72
2019-05-25T11:34:03.521Z,4.53
2019-05-25T11:36:32.177Z,4.67
2019-05-25T11:39:00.942Z,5.00
2019-05-25T11:41:29.620Z,4.50
2019-05-25T11:43:58.194Z,4.17
2019-05-25T11:46:26.923Z,4.10
2019-05-25T11:48:55.560Z,3.92
2019-05-25T11:51:24.283Z,4.10
2019-05-25T11:53:52.730Z,4.10
2019-05-25T11:56:21.419Z,3.60
2019-05-25T11:58:49.997Z,3.92
2019-05-25T12:01:18.675Z,4.40
2019-05-25T12:03:47.174Z,4.17
2019-05-25T12:06:15.826Z,3.98
2019-05-25T12:08:44.520Z,4.30
2019-05-25T12:11:13.122Z,4.33
2019-05-25T12:13:41.861Z,4.67
2019-05-25T12:16:10.665Z,4.55
2019-05-25T12:18:39.290Z,3.92
2019-05-25T12:21:07.863Z,4.10
2019-05-25T12:23:36.368Z,3.60
2019-05-25T12:26:05.063Z,3.85
2019-05-25T12:28:33.661Z,3.60
2019-05-25T12:31:02.310Z,3.62
2019-05-25T12:33:31.034Z,3.70
2019-05-25T12:35:59.750Z,3.25
2019-05-25T12:38:28.361Z,3.55
2019-05-25T12:40:57.083Z,3.83
2019-05-25T12:43:25.791Z,3.60
2019-05-25T12:45:54.473Z,3.58
2019-05-25T12:48:23.106Z,3.67
2019-05-25T12:50:51.827Z,3.55
2019-05-25T12:53:20.473Z,3.72
2019-05-25T12:55:49.313Z,3.37
2019-05-25T12:58:17.846Z,3.80
2019-05-25T13:00:55.783Z,3.47
2019-05-25T13:03:16.789Z,3.50
2019-05-25T13:05:45.516Z,3.02
2019-05-25T13:08:14.170Z,3.00
2019-05-25T13:10:42.850Z,3.37
2019-05-25T13:13:11.611Z,3.80
2019-05-25T13:15:40.182Z,3.20
2019-05-25T13:18:08.916Z,3.17
2019-05-25T13:20:37.554Z,3.20
2019-05-25T13:23:06.314Z,3.17
2019-05-25T13:25:34.927Z,3.12
2019-05-25T13:28:03.616Z,2.90
2019-05-25T13:30:32.096Z,3.10
2019-05-25T13:33:00.675Z,3.00
2019-05-25T13:35:29.160Z,3.42
2019-05-25T13:37:57.742Z,3.70
2019-05-25T13:40:26.539Z,3.60
2019-05-25T13:42:55.111Z,3.58
2019-05-25T13:45:23.845Z,3.52
2019-05-25T13:47:52.492Z,3.80
2019-05-25T13:50:21.444Z,3.70
2019-05-25T13:52:49.892Z,3.70
2019-05-25T13:55:18.446Z,3.72
2019-05-25T13:57:47.060Z,3.67
2019-05-25T14:00:15.887Z,3.77
2019-05-25T14:02:44.400Z,3.40
2019-05-25T14:05:14.023Z,3.90
2019-05-25T14:07:42.590Z,3.98
2019-05-25T14:10:11.487Z,3.60
2019-05-25T14:12:39.960Z,3.60
2019-05-25T14:15:09.456Z,3.40
2019-05-25T14:17:38.253Z,3.98
2019-05-25T14:20:07.920Z,3.80
2019-05-25T14:22:36.546Z,4.03
2019-05-25T14:25:07.431Z,3.58
2019-05-25T14:27:36.102Z,3.75
2019-05-25T14:30:06.207Z,4.20
2019-05-25T14:32:34.699Z,3.92
2019-05-25T14:35:03.506Z,3.25
2019-05-25T14:37:32.070Z,3.20
2019-05-25T14:40:00.804Z,3.70
2019-05-25T14:42:29.466Z,3.80
2019-05-25T14:44:58.107Z,3.77
2019-05-25T14:47:26.840Z,4.05
2019-05-25T14:49:55.459Z,3.95
2019-05-25T14:52:23.934Z,3.67
2019-05-25T14:54:52.532Z,3.85
2019-05-25T14:57:21.652Z,3.58
2019-05-25T14:59:51.890Z,3.87
2019-05-25T15:02:20.469Z,3.87
2019-05-25T15:04:49.134Z,4.78
2019-05-25T15:07:17.863Z,5.08
2019-05-25T15:09:46.509Z,5.05
2019-05-25T15:12:15.255Z,4.53
2019-05-25T15:14:43.870Z,4.50
2019-05-25T15:17:12.593Z,4.25
2019-05-25T15:19:41.236Z,4.90
2019-05-25T15:22:10.389Z,4.87
2019-05-25T15:24:39.559Z,4.45
2019-05-25T15:27:08.212Z,4.35
2019-05-25T15:29:36.952Z,4.70
2019-05-25T15:32:19.049Z,5.03
2019-05-25T15:34:36.150Z,4.30
2019-05-25T15:37:05.050Z,5.00
2019-05-25T15:39:33.902Z,4.72
2019-05-25T15:42:02.852Z,4.08
2019-05-25T15:44:31.519Z,3.62
2019-05-25T15:47:00.154Z,3.60
2019-05-25T15:49:33.339Z,4.00
2019-05-25T15:51:59.728Z,3.50
2019-05-25T15:54:28.409Z,3.50
2019-05-25T15:56:56.864Z,3.47
2019-05-25T15:59:25.468Z,4.53
2019-05-25T16:01:54.116Z,4.60
2019-05-25T16:04:22.627Z,4.25
2019-05-25T16:06:51.317Z,4.42
2019-05-25T16:09:19.935Z,3.90
2019-05-25T16:11:48.622Z,3.65
2019-05-25T16:14:17.256Z,3.70
2019-05-25T16:16:45.954Z,3.50
2019-05-25T16:19:14.387Z,3.98
2019-05-25T16:21:43.016Z,3.40
2019-05-25T16:24:13.011Z,3.30
2019-05-25T16:26:45.908Z,3.70
2019-05-25T16:29:11.811Z,3.62
2019-05-25T16:31:40.543Z,2.98
2019-05-25T16:34:08.988Z,3.30
2019-05-25T16:36:37.563Z,3.60
2019-05-25T16:39:08.194Z,3.15
2019-05-25T16:41:36.782Z,3.10
2019-05-25T16:44:05.596Z,2.87
2019-05-25T16:46:34.145Z,2.55
2019-05-25T16:49:02.640Z,2.60
2019-05-25T16:51:31.218Z,2.58
2019-05-25T16:53:59.945Z,2.35
2019-05-25T16:56:28.458Z,2.40
2019-05-25T16:58:56.951Z,2.47
2019-05-25T17:01:25.386Z,2.47
2019-05-25T17:03:54.093Z,2.30
2019-05-25T17:06:22.603Z,2.10
2019-05-25T17:08:51.141Z,2.10
2019-05-25T17:11:19.815Z,2.22
2019-05-25T17:13:48.503Z,2.22
2019-05-25T17:16:16.940Z,2.00
2019-05-25T17:18:45.575Z,2.37
2019-05-25T17:21:14.020Z,2.27
2019-05-25T17:23:42.704Z,2.10
2019-05-25T17:26:11.158Z,2.25
2019-05-25T17:28:39.707Z,1.98
2019-05-25T17:31:08.146Z,2.10
2019-05-25T17:33:45.770Z,2.27
2019-05-25T17:36:07.321Z,2.33
2019-05-25T17:38:35.976Z,2.25
2019-05-25T17:41:04.591Z,2.17
2019-05-25T17:43:33.069Z,1.90
2019-05-25T17:46:01.509Z,2.08
2019-05-25T17:48:30.070Z,1.92
2019-05-25T17:50:58.557Z,2.12
2019-05-25T17:53:27.131Z,2.25
2019-05-25T17:55:55.623Z,2.10
2019-05-25T17:58:24.153Z,2.05
2019-05-25T18:00:52.653Z,2.17
2019-05-25T18:03:21.238Z,2.40
2019-05-25T18:05:49.715Z,2.10
2019-05-25T18:08:18.410Z,2.20
2019-05-25T18:10:53.321Z,2.25
2019-05-25T18:13:17.728Z,2.22
2019-05-25T18:15:46.288Z,2.30
2019-05-25T18:18:14.962Z,2.20
2019-05-25T18:20:43.606Z,2.40
2019-05-25T18:23:12.103Z,2.40
2019-05-25T18:25:40.736Z,2.50
2019-05-25T18:28:09.538Z,2.30
2019-05-25T18:30:38.096Z,2.15
2019-05-25T18:33:06.826Z,2.20
2019-05-25T18:35:35.461Z,2.37
2019-05-25T18:38:04.470Z,2.45
2019-05-25T18:40:33.130Z,2.40
2019-05-25T18:43:01.777Z,2.55
2019-05-25T18:45:30.568Z,2.22
2019-05-25T18:47:59.142Z,2.60
2019-05-25T18:50:27.951Z,2.35
2019-05-25T18:52:56.521Z,2.27
2019-05-25T18:55:25.298Z,2.05
2019-05-25T18:57:53.742Z,2.35
2019-05-25T19:00:23.889Z,2.30
2019-05-25T19:02:52.469Z,2.75
2019-05-25T19:05:21.109Z,2.72
2019-05-25T19:07:49.627Z,2.70
2019-05-25T19:10:19.765Z,2.58
2019-05-25T19:12:48.717Z,2.40
2019-05-25T19:15:19.016Z,2.80
2019-05-25T19:17:47.703Z,2.60
2019-05-25T19:20:20.972Z,2.37
2019-05-25T19:22:47.570Z,2.75
2019-05-25T19:25:16.828Z,2.60
2019-05-25T19:27:45.543Z,2.77
2019-05-25T19:30:16.325Z,2.52
2019-05-25T19:32:45.023Z,2.67
2019-05-25T19:35:13.610Z,2.67
2019-05-25T19:37:42.713Z,2.40
2019-05-25T19:40:12.057Z,2.50
2019-05-25T19:42:40.746Z,2.60
2019-05-25T19:45:10.354Z,2.60
2019-05-25T19:47:39.036Z,2.40
2019-05-25T19:50:08.652Z,5.25
2019-05-25T19:52:37.344Z,4.87
2019-05-25T19:55:07.512Z,3.20
2019-05-25T19:57:36.238Z,3.40
2019-05-25T20:00:09.255Z,2.72
2019-05-25T20:02:39.576Z,2.90
2019-05-25T20:05:16.286Z,3.20
2019-05-25T20:07:39.254Z,3.00
2019-05-25T20:10:09.178Z,2.77
2019-05-25T20:12:37.839Z,2.92
2019-05-25T20:15:08.033Z,2.70
2019-05-25T20:17:37.300Z,2.60
2019-05-25T20:20:06.977Z,2.60
2019-05-25T20:22:35.672Z,2.92
2019-05-25T20:25:07.196Z,3.15
2019-05-25T20:27:35.812Z,3.10
2019-05-25T20:30:09.703Z,2.95
2019-05-25T20:32:38.478Z,2.92
2019-05-25T20:35:07.969Z,2.70
2019-05-25T20:37:36.789Z,2.72
2019-05-25T20:40:07.974Z,2.77
2019-05-25T20:42:36.907Z,3.10
2019-05-25T20:45:07.679Z,3.27
2019-05-25T20:47:36.441Z,3.37
2019-05-25T20:50:08.130Z,2.90
2019-05-25T20:52:36.826Z,3.25
2019-05-25T20:55:06.622Z,3.20
2019-05-25T20:57:35.079Z,3.02
2019-05-25T21:00:05.322Z,3.35
2019-05-25T21:02:34.018Z,3.60
2019-05-25T21:05:02.735Z,3.95
2019-05-25T21:07:31.341Z,4.15
2019-05-25T21:10:00.051Z,3.58
2019-05-25T21:12:28.722Z,3.77
2019-05-25T21:14:57.414Z,4.47
2019-05-25T21:17:26.078Z,5.12
2019-05-25T21:19:54.758Z,4.08
2019-05-25T21:22:23.564Z,2.98
2019-05-25T21:24:52.126Z,2.42
2019-05-25T21:27:20.735Z,2.80
2019-05-25T21:29:49.198Z,2.70
2019-05-25T21:32:17.923Z,2.90
2019-05-25T21:34:46.558Z,2.85
2019-05-25T21:37:15.282Z,2.10
2019-05-25T21:39:43.730Z,2.35
2019-05-25T21:42:12.351Z,2.98
2019-05-25T21:44:41.007Z,4.80
2019-05-25T21:47:09.482Z,3.12
2019-05-25T21:49:38.064Z,2.90
2019-05-25T21:52:06.817Z,3.22
2019-05-25T21:54:35.480Z,2.17
2019-05-25T21:57:04.186Z,2.20
2019-05-25T21:59:32.998Z,2.20
2019-05-25T22:02:01.497Z,2.00
2019-05-25T22:04:30.210Z,2.30
2019-05-25T22:06:58.921Z,2.15
2019-05-25T22:09:27.614Z,2.00
2019-05-25T22:11:56.241Z,2.40
2019-05-25T22:14:25.057Z,2.12
2019-05-25T22:16:53.599Z,1.95
2019-05-25T22:19:22.096Z,2.20
2019-05-25T22:21:50.663Z,2.00
2019-05-25T22:24:19.155Z,1.85
2019-05-25T22:26:47.741Z,2.08
2019-05-25T22:29:16.258Z,2.22
2019-05-25T22:31:44.844Z,2.12
2019-05-25T22:34:13.557Z,2.40
2019-05-25T22:36:42.197Z,2.10
2019-05-25T22:39:10.866Z,2.22
2019-05-25T22:41:39.568Z,2.30
2019-05-25T22:44:08.304Z,2.00
2019-05-25T22:46:36.959Z,2.33
2019-05-25T22:49:05.819Z,2.08
2019-05-25T22:51:34.284Z,2.10
2019-05-25T22:54:02.772Z,2.12
2019-05-25T22:56:31.348Z,2.30
2019-05-25T22:58:59.838Z,2.50
2019-05-25T23:01:28.431Z,2.47
2019-05-25T23:03:57.179Z,2.40
2019-05-25T23:06:25.889Z,2.27
2019-05-25T23:08:54.474Z,2.10
2019-05-25T23:11:23.206Z,1.85
2019-05-25T23:13:51.874Z,2.22
2019-05-25T23:16:20.559Z,2.40
2019-05-25T23:18:49.228Z,2.37
2019-05-25T23:21:17.942Z,2.40
2019-05-25T23:23:46.584Z,2.15
2019-05-25T23:26:15.151Z,2.60
2019-05-25T23:28:43.659Z,2.60
2019-05-25T23:31:12.144Z,2.67
2019-05-25T23:33:40.721Z,2.35
2019-05-25T23:36:09.447Z,2.30
2019-05-25T23:38:38.083Z,2.35
2019-05-25T23:41:06.597Z,2.40
2019-05-25T23:43:35.375Z,2.60
2019-05-25T23:46:03.957Z,2.35
2019-05-25T23:48:32.551Z,2.90
2019-05-25T23:51:01.213Z,2.45
2019-05-25T23:53:29.701Z,2.65
2019-05-25T23:55:58.274Z,2.45
2019-05-25T23:58:26.778Z,2.70
